createdAt,value
2017-08-27T00:00:07.161Z,0
2017-08-27T00:00:47.606Z,0
2017-08-27T00:01:28.285Z,0
2017-08-27T00:02:08.784Z,0
2017-08-27T00:04:06.560Z,0
2017-08-27T00:04:47.332Z,0
2017-08-27T00:05:27.459Z,0
2017-08-27T00:06:07.917Z,0
2017-08-27T00:06:48.366Z,0
2017-08-27T00:07:28.832Z,0
2017-08-27T00:08:09.287Z,0
2017-08-27T00:08:49.782Z,0
2017-08-27T00:09:30.245Z,0
2017-08-27T00:10:10.691Z,0
2017-08-27T00:10:51.143Z,0
2017-08-27T00:11:31.597Z,0
2017-08-27T00:12:12.062Z,0
2017-08-27T00:12:52.523Z,0
2017-08-27T00:13:32.969Z,0
2017-08-27T00:14:13.412Z,0
2017-08-27T00:14:53.870Z,0
2017-08-27T00:15:34.393Z,0
2017-08-27T00:16:14.778Z,0
2017-08-27T00:18:42.926Z,0
2017-08-27T00:19:23.403Z,0
2017-08-27T00:20:03.944Z,0
2017-08-27T00:20:44.398Z,0
2017-08-27T00:21:24.949Z,0
2017-08-27T00:22:05.324Z,0
2017-08-27T00:22:46.043Z,0
2017-08-27T00:23:26.486Z,0
2017-08-27T00:24:06.943Z,0
2017-08-27T00:24:47.386Z,0
2017-08-27T00:25:27.830Z,0
2017-08-27T00:26:08.279Z,0
2017-08-27T00:26:48.729Z,0
2017-08-27T00:27:29.180Z,0
2017-08-27T00:28:09.663Z,0
2017-08-27T00:28:50.081Z,0
2017-08-27T00:29:30.527Z,0
2017-08-27T00:30:10.985Z,0
2017-08-27T00:30:51.449Z,0
2017-08-27T00:31:31.905Z,0
2017-08-27T00:32:12.358Z,0
2017-08-27T00:32:52.807Z,0
2017-08-27T00:33:33.254Z,0
2017-08-27T00:34:13.726Z,0
2017-08-27T00:34:54.283Z,0
2017-08-27T00:35:34.635Z,0
2017-08-27T00:36:15.092Z,0
2017-08-27T00:36:55.569Z,0
2017-08-27T00:37:36.073Z,0
2017-08-27T00:38:16.563Z,0
2017-08-27T00:38:56.988Z,0
2017-08-27T00:39:37.434Z,0
2017-08-27T00:40:17.878Z,0
2017-08-27T00:40:58.321Z,0
2017-08-27T00:41:38.776Z,0
2017-08-27T00:42:19.232Z,0
2017-08-27T00:42:59.680Z,0
2017-08-27T00:43:40.160Z,0
2017-08-27T00:44:20.596Z,0
2017-08-27T00:45:01.050Z,0
2017-08-27T00:45:41.495Z,0
2017-08-27T00:46:21.956Z,0
2017-08-27T00:47:02.415Z,0
2017-08-27T00:47:42.869Z,0
2017-08-27T00:48:23.321Z,0
2017-08-27T00:49:03.821Z,0
2017-08-27T00:49:44.277Z,0
2017-08-27T00:50:24.730Z,0
2017-08-27T00:51:05.188Z,0
2017-08-27T00:51:45.636Z,0
2017-08-27T00:52:26.090Z,0
2017-08-27T00:53:06.559Z,0
2017-08-27T00:53:47.004Z,0
2017-08-27T00:54:27.458Z,0
2017-08-27T00:55:07.922Z,0
2017-08-27T00:55:48.383Z,0
2017-08-27T00:56:28.838Z,0
2017-08-27T00:57:09.298Z,0
2017-08-27T00:57:49.758Z,0
2017-08-27T00:58:30.205Z,0
2017-08-27T00:59:10.660Z,0
2017-08-27T00:59:51.111Z,0
2017-08-27T01:00:31.565Z,0
2017-08-27T01:01:12.018Z,0
2017-08-27T01:01:52.476Z,0
2017-08-27T01:02:32.937Z,0
2017-08-27T01:03:13.395Z,0
2017-08-27T01:03:53.869Z,0
2017-08-27T01:04:34.330Z,0
2017-08-27T01:05:14.787Z,0
2017-08-27T01:05:55.254Z,0
2017-08-27T01:06:35.708Z,0
2017-08-27T01:07:16.165Z,0
2017-08-27T01:07:56.616Z,0
2017-08-27T01:08:37.068Z,0
2017-08-27T01:09:17.516Z,0
2017-08-27T01:09:57.966Z,0
2017-08-27T01:10:38.420Z,0
2017-08-27T01:11:18.877Z,0
2017-08-27T01:11:59.312Z,0
2017-08-27T01:12:39.763Z,0
2017-08-27T01:13:20.217Z,0
2017-08-27T01:14:00.694Z,0
2017-08-27T01:14:41.129Z,0
2017-08-27T01:15:21.580Z,0
2017-08-27T01:16:02.036Z,0
2017-08-27T01:16:42.502Z,0
2017-08-27T01:17:22.954Z,0
2017-08-27T01:18:03.413Z,0
2017-08-27T01:18:43.870Z,0
2017-08-27T01:19:24.338Z,0
2017-08-27T01:20:04.779Z,0
2017-08-27T01:20:45.234Z,0
2017-08-27T01:21:25.689Z,0
2017-08-27T01:22:06.139Z,0
2017-08-27T01:22:46.591Z,0
2017-08-27T01:23:27.042Z,0
2017-08-27T01:24:07.495Z,0
2017-08-27T01:24:47.946Z,0
2017-08-27T01:25:28.407Z,0
2017-08-27T01:26:08.859Z,0
2017-08-27T01:26:49.314Z,0
2017-08-27T01:27:29.771Z,0
2017-08-27T01:28:10.229Z,0
2017-08-27T01:28:50.678Z,0
2017-08-27T01:29:31.133Z,0
2017-08-27T01:30:11.593Z,0
2017-08-27T01:30:52.038Z,0
2017-08-27T01:31:32.503Z,0
2017-08-27T01:32:12.974Z,0
2017-08-27T01:32:53.424Z,0
2017-08-27T01:33:33.896Z,0
2017-08-27T01:34:14.342Z,0
2017-08-27T01:34:54.799Z,0
2017-08-27T01:35:35.252Z,0
2017-08-27T01:36:15.697Z,0
2017-08-27T01:36:56.150Z,0
2017-08-27T01:37:36.609Z,0
2017-08-27T01:38:17.056Z,0
2017-08-27T01:38:57.516Z,0
2017-08-27T01:39:37.970Z,0
2017-08-27T01:40:18.425Z,0
2017-08-27T01:40:58.882Z,0
2017-08-27T01:41:39.344Z,0
2017-08-27T01:42:19.793Z,0
2017-08-27T01:43:00.249Z,0
2017-08-27T01:43:40.698Z,0
2017-08-27T01:44:21.158Z,0
2017-08-27T01:45:01.623Z,0
2017-08-27T01:45:42.084Z,0
2017-08-27T01:46:22.553Z,0
2017-08-27T01:47:03.007Z,0
2017-08-27T01:47:43.448Z,0
2017-08-27T01:48:23.888Z,0
2017-08-27T01:49:04.345Z,0
2017-08-27T01:49:44.797Z,0
2017-08-27T01:50:25.257Z,0
2017-08-27T01:51:05.721Z,0
2017-08-27T01:51:46.176Z,0
2017-08-27T01:52:26.625Z,0
2017-08-27T01:53:07.075Z,0
2017-08-27T01:53:47.526Z,0
2017-08-27T01:54:27.977Z,0
2017-08-27T01:55:08.446Z,0
2017-08-27T01:55:48.901Z,0
2017-08-27T01:56:29.354Z,0
2017-08-27T01:57:09.816Z,0
2017-08-27T01:57:50.280Z,0
2017-08-27T01:58:30.727Z,0
2017-08-27T01:59:11.181Z,0
2017-08-27T01:59:51.644Z,0
2017-08-27T02:00:32.107Z,0
2017-08-27T02:01:12.583Z,0
2017-08-27T02:01:53.032Z,0
2017-08-27T02:02:33.485Z,0
2017-08-27T02:03:14.481Z,0
2017-08-27T02:03:54.941Z,0
2017-08-27T02:04:35.379Z,0
2017-08-27T02:05:15.833Z,0
2017-08-27T02:05:56.294Z,0
2017-08-27T02:06:36.752Z,0
2017-08-27T02:07:17.202Z,0
2017-08-27T02:07:57.656Z,0
2017-08-27T02:08:38.119Z,0
2017-08-27T02:09:18.572Z,0
2017-08-27T02:09:59.037Z,0
2017-08-27T02:10:39.501Z,0
2017-08-27T02:11:19.966Z,0
2017-08-27T02:12:00.421Z,0
2017-08-27T02:12:40.879Z,0
2017-08-27T02:13:21.334Z,0
2017-08-27T02:14:01.788Z,0
2017-08-27T02:14:42.247Z,0
2017-08-27T02:15:22.708Z,0
2017-08-27T02:16:03.161Z,0
2017-08-27T02:16:43.616Z,0
2017-08-27T02:17:24.076Z,0
2017-08-27T02:18:04.522Z,0
2017-08-27T02:18:44.972Z,0
2017-08-27T02:19:25.430Z,0
2017-08-27T02:20:05.889Z,0
2017-08-27T02:20:46.343Z,0
2017-08-27T02:21:26.806Z,0
2017-08-27T02:22:07.267Z,0
2017-08-27T02:22:47.723Z,0
2017-08-27T02:23:28.178Z,0
2017-08-27T02:24:08.635Z,0
2017-08-27T02:24:49.089Z,0
2017-08-27T02:25:29.547Z,0
2017-08-27T02:26:10.004Z,0
2017-08-27T02:26:50.461Z,0
2017-08-27T02:27:30.916Z,0
2017-08-27T02:28:11.394Z,0
2017-08-27T02:28:51.852Z,0
2017-08-27T02:29:32.306Z,0
2017-08-27T02:30:12.760Z,0
2017-08-27T02:30:53.218Z,0
2017-08-27T02:31:33.680Z,0
2017-08-27T02:32:14.144Z,0
2017-08-27T02:32:54.601Z,0
2017-08-27T02:33:35.057Z,0
2017-08-27T02:34:15.513Z,0
2017-08-27T02:34:55.974Z,0
2017-08-27T02:35:36.437Z,0
2017-08-27T02:36:16.892Z,0
2017-08-27T02:36:57.359Z,0
2017-08-27T02:37:37.803Z,0
2017-08-27T02:38:18.257Z,0
2017-08-27T02:38:58.829Z,0
2017-08-27T02:39:39.175Z,0
2017-08-27T02:40:19.621Z,0
2017-08-27T02:41:00.084Z,0
2017-08-27T02:41:40.540Z,0
2017-08-27T02:42:20.999Z,0
2017-08-27T02:43:01.458Z,0
2017-08-27T02:43:41.909Z,0
2017-08-27T02:44:22.361Z,0
2017-08-27T02:45:02.811Z,0
2017-08-27T02:45:43.272Z,0
2017-08-27T02:46:23.734Z,0
2017-08-27T02:47:04.187Z,0
2017-08-27T02:47:44.644Z,0
2017-08-27T02:48:25.107Z,0
2017-08-27T02:49:05.560Z,0
2017-08-27T02:49:46.016Z,0
2017-08-27T02:50:26.458Z,0
2017-08-27T02:51:06.927Z,0
2017-08-27T02:51:47.382Z,0
2017-08-27T02:52:27.837Z,0
2017-08-27T02:53:08.298Z,0
2017-08-27T02:53:48.764Z,0
2017-08-27T02:54:29.221Z,0
2017-08-27T02:55:09.676Z,0
2017-08-27T02:55:50.130Z,0
2017-08-27T02:56:30.596Z,0
2017-08-27T02:57:11.051Z,0
2017-08-27T02:57:51.510Z,0
2017-08-27T02:58:31.965Z,0
2017-08-27T02:59:12.424Z,0
2017-08-27T02:59:52.883Z,0
2017-08-27T03:00:33.343Z,0
2017-08-27T03:01:13.801Z,0
2017-08-27T03:01:54.255Z,0
2017-08-27T03:02:34.711Z,0
2017-08-27T03:03:15.172Z,0
2017-08-27T03:03:55.631Z,0
2017-08-27T03:04:36.088Z,0
2017-08-27T03:05:16.546Z,0
2017-08-27T03:05:56.998Z,0
2017-08-27T03:06:37.450Z,0
2017-08-27T03:07:17.897Z,0
2017-08-27T03:07:58.372Z,0
2017-08-27T03:08:38.821Z,0
2017-08-27T03:09:19.297Z,0
2017-08-27T03:09:59.756Z,0
2017-08-27T03:10:40.211Z,0
2017-08-27T03:11:20.672Z,0
2017-08-27T03:12:01.126Z,0
2017-08-27T03:12:41.590Z,0
2017-08-27T03:13:22.120Z,0
2017-08-27T03:14:02.576Z,0
2017-08-27T03:14:43.037Z,0
2017-08-27T03:15:23.505Z,0
2017-08-27T03:16:04.003Z,0
2017-08-27T03:16:44.480Z,0
2017-08-27T03:17:24.923Z,0
2017-08-27T03:18:05.380Z,0
2017-08-27T03:18:45.830Z,0
2017-08-27T03:19:26.296Z,0
2017-08-27T03:20:06.727Z,0
2017-08-27T03:20:47.268Z,0
2017-08-27T03:21:27.727Z,0
2017-08-27T03:22:08.184Z,0
2017-08-27T03:22:48.639Z,0
2017-08-27T03:23:29.083Z,0
2017-08-27T03:24:09.535Z,0
2017-08-27T03:24:50.000Z,0
2017-08-27T03:25:30.446Z,0
2017-08-27T03:26:10.902Z,0
2017-08-27T03:26:51.367Z,0
2017-08-27T03:27:31.822Z,0
2017-08-27T03:28:12.280Z,0
2017-08-27T03:28:52.777Z,0
2017-08-27T03:29:33.229Z,0
2017-08-27T03:30:13.692Z,0
2017-08-27T03:30:54.148Z,0
2017-08-27T03:31:34.597Z,0
2017-08-27T03:32:15.056Z,0
2017-08-27T03:32:55.509Z,0
2017-08-27T03:33:35.963Z,0
2017-08-27T03:34:16.418Z,0
2017-08-27T03:34:56.895Z,0
2017-08-27T03:35:37.345Z,0
2017-08-27T03:36:17.798Z,0
2017-08-27T03:36:58.244Z,0
2017-08-27T03:37:38.687Z,0
2017-08-27T03:38:19.212Z,0
2017-08-27T03:38:59.679Z,0
2017-08-27T03:39:40.122Z,0
2017-08-27T03:40:20.576Z,0
2017-08-27T03:41:01.033Z,0
2017-08-27T03:41:41.497Z,0
2017-08-27T03:42:21.960Z,0
2017-08-27T03:43:02.405Z,0
2017-08-27T03:43:42.861Z,0
2017-08-27T03:44:23.322Z,0
2017-08-27T03:45:03.756Z,0
2017-08-27T03:45:44.210Z,0
2017-08-27T03:46:24.669Z,0
2017-08-27T03:47:05.129Z,0
2017-08-27T03:47:45.585Z,0
2017-08-27T03:48:26.038Z,0
2017-08-27T03:49:06.486Z,0
2017-08-27T03:49:46.941Z,0
2017-08-27T03:50:27.394Z,0
2017-08-27T03:51:07.842Z,0
2017-08-27T03:51:48.305Z,0
2017-08-27T03:52:28.759Z,0
2017-08-27T03:53:09.220Z,0
2017-08-27T03:53:49.671Z,0
2017-08-27T03:54:30.133Z,0
2017-08-27T03:55:10.595Z,0
2017-08-27T03:55:51.041Z,0
2017-08-27T03:56:31.504Z,0
2017-08-27T03:57:11.940Z,0
2017-08-27T03:57:52.394Z,0
2017-08-27T03:58:32.853Z,0
2017-08-27T03:59:13.336Z,0
2017-08-27T03:59:53.784Z,0
2017-08-27T04:00:34.334Z,0
2017-08-27T04:01:14.784Z,0
2017-08-27T04:01:55.220Z,0
2017-08-27T04:02:35.683Z,0
2017-08-27T04:03:16.113Z,0
2017-08-27T04:03:56.574Z,0
2017-08-27T04:04:37.035Z,0
2017-08-27T04:05:17.490Z,0
2017-08-27T04:05:57.947Z,0
2017-08-27T04:06:38.412Z,0
2017-08-27T04:07:18.871Z,0
2017-08-27T04:07:59.326Z,0
2017-08-27T04:08:39.789Z,0
2017-08-27T04:09:20.241Z,0
2017-08-27T04:10:00.696Z,0
2017-08-27T04:10:41.157Z,0
2017-08-27T04:11:21.609Z,0
2017-08-27T04:12:02.069Z,0
2017-08-27T04:12:42.523Z,0
2017-08-27T04:13:22.983Z,0
2017-08-27T04:14:03.444Z,0
2017-08-27T04:14:43.889Z,0
2017-08-27T04:15:24.349Z,0
2017-08-27T04:16:04.800Z,0
2017-08-27T04:16:45.257Z,0
2017-08-27T04:17:25.715Z,0
2017-08-27T04:18:06.170Z,0
2017-08-27T04:18:46.651Z,0
2017-08-27T04:19:27.086Z,0
2017-08-27T04:20:07.545Z,0
2017-08-27T04:20:48.004Z,0
2017-08-27T04:21:28.452Z,0
2017-08-27T04:22:08.920Z,0
2017-08-27T04:22:49.376Z,0
2017-08-27T04:23:29.838Z,0
2017-08-27T04:24:10.305Z,0
2017-08-27T04:24:50.762Z,0
2017-08-27T04:25:31.222Z,0
2017-08-27T04:26:11.686Z,0
2017-08-27T04:26:52.140Z,0
2017-08-27T04:27:32.588Z,0
2017-08-27T04:28:13.039Z,0
2017-08-27T04:28:53.505Z,0
2017-08-27T04:29:33.961Z,0
2017-08-27T04:30:14.408Z,0
2017-08-27T04:30:54.869Z,0
2017-08-27T04:31:35.323Z,0
2017-08-27T04:32:15.796Z,0
2017-08-27T04:32:56.256Z,0
2017-08-27T04:33:36.728Z,0
2017-08-27T04:34:17.176Z,0
2017-08-27T04:34:57.614Z,0
2017-08-27T04:35:38.070Z,0
2017-08-27T04:36:18.521Z,0
2017-08-27T04:36:59.019Z,0
2017-08-27T04:37:39.475Z,0
2017-08-27T04:38:19.933Z,0
2017-08-27T04:39:00.387Z,0
2017-08-27T04:39:40.833Z,0
2017-08-27T04:40:21.315Z,0
2017-08-27T04:41:01.752Z,0
2017-08-27T04:41:42.200Z,0
2017-08-27T04:42:22.658Z,0
2017-08-27T04:43:03.112Z,0
2017-08-27T04:43:43.571Z,0
2017-08-27T04:44:24.028Z,0
2017-08-27T04:45:04.476Z,0
2017-08-27T04:45:44.938Z,0
2017-08-27T04:46:25.398Z,0
2017-08-27T04:47:05.858Z,0
2017-08-27T04:47:46.306Z,0
2017-08-27T04:48:26.761Z,0
2017-08-27T04:49:07.223Z,0
2017-08-27T04:49:47.684Z,0
2017-08-27T04:50:28.137Z,0
2017-08-27T04:51:08.597Z,0
2017-08-27T04:51:49.047Z,0
2017-08-27T04:52:29.503Z,0
2017-08-27T04:53:09.965Z,0
2017-08-27T04:53:50.426Z,0
2017-08-27T04:54:31.130Z,0
2017-08-27T04:55:11.579Z,0
2017-08-27T04:55:52.037Z,0
2017-08-27T04:56:32.492Z,0
2017-08-27T04:57:12.964Z,0
2017-08-27T04:57:53.414Z,0
2017-08-27T04:58:33.870Z,0
2017-08-27T04:59:14.325Z,0
2017-08-27T04:59:54.791Z,0
2017-08-27T05:00:35.249Z,0
2017-08-27T05:01:15.708Z,0
2017-08-27T05:01:56.167Z,0
2017-08-27T05:02:36.626Z,0
2017-08-27T05:03:17.080Z,0
2017-08-27T05:03:57.539Z,4
2017-08-27T05:04:38.000Z,4
2017-08-27T05:05:18.442Z,4
2017-08-27T05:05:58.894Z,4
2017-08-27T05:06:39.355Z,4
2017-08-27T05:07:19.807Z,4
2017-08-27T05:08:00.262Z,4
2017-08-27T05:08:40.708Z,4
2017-08-27T05:09:21.159Z,4
2017-08-27T05:10:01.612Z,4
2017-08-27T05:10:42.071Z,4
2017-08-27T05:11:22.535Z,4
2017-08-27T05:12:03.000Z,4
2017-08-27T05:12:43.461Z,4
2017-08-27T05:13:23.920Z,4
2017-08-27T05:14:04.379Z,0
2017-08-27T05:14:44.830Z,0
2017-08-27T05:15:25.292Z,0
2017-08-27T05:16:05.773Z,0
2017-08-27T05:16:46.212Z,0
2017-08-27T05:17:26.666Z,0
2017-08-27T05:18:07.121Z,0
2017-08-27T05:18:47.576Z,0
2017-08-27T05:19:28.044Z,0
2017-08-27T05:20:08.515Z,0
2017-08-27T05:20:48.976Z,0
2017-08-27T05:21:29.435Z,0
2017-08-27T05:22:09.902Z,0
2017-08-27T05:22:50.365Z,0
2017-08-27T05:23:30.822Z,0
2017-08-27T05:24:11.279Z,4
2017-08-27T05:24:51.745Z,4
2017-08-27T05:25:32.199Z,4
2017-08-27T05:26:12.642Z,4
2017-08-27T05:26:53.106Z,4
2017-08-27T05:27:33.559Z,4
2017-08-27T05:28:14.014Z,4
2017-08-27T05:28:54.461Z,0
2017-08-27T05:29:34.924Z,0
2017-08-27T05:30:15.411Z,0
2017-08-27T05:30:55.872Z,0
2017-08-27T05:31:36.330Z,0
2017-08-27T05:32:16.786Z,0
2017-08-27T05:32:57.232Z,0
2017-08-27T05:33:37.690Z,0
2017-08-27T05:34:18.136Z,0
2017-08-27T05:34:58.616Z,0
2017-08-27T05:35:39.068Z,0
2017-08-27T05:36:19.526Z,0
2017-08-27T05:36:59.984Z,0
2017-08-27T05:37:40.432Z,0
2017-08-27T05:38:20.899Z,0
2017-08-27T05:39:01.354Z,0
2017-08-27T05:39:41.815Z,0
2017-08-27T05:40:22.275Z,0
2017-08-27T05:41:02.733Z,0
2017-08-27T05:41:43.195Z,0
2017-08-27T05:42:23.651Z,4
2017-08-27T05:43:04.201Z,4
2017-08-27T05:43:44.654Z,4
2017-08-27T05:44:25.114Z,4
2017-08-27T05:45:05.591Z,4
2017-08-27T05:45:46.048Z,4
2017-08-27T05:46:26.506Z,4
2017-08-27T05:47:06.960Z,4
2017-08-27T05:47:47.420Z,4
2017-08-27T05:48:27.877Z,4
2017-08-27T05:49:08.326Z,4
2017-08-27T05:49:48.787Z,4
2017-08-27T05:50:29.242Z,4
2017-08-27T05:51:09.699Z,4
2017-08-27T05:51:50.162Z,4
2017-08-27T05:52:30.623Z,4
2017-08-27T05:53:11.075Z,4
2017-08-27T05:53:51.529Z,4
2017-08-27T05:54:31.991Z,4
2017-08-27T05:55:12.446Z,4
2017-08-27T05:55:52.903Z,4
2017-08-27T05:56:33.357Z,4
2017-08-27T05:57:13.800Z,4
2017-08-27T05:57:54.259Z,4
2017-08-27T05:58:34.706Z,4
2017-08-27T05:59:15.165Z,4
2017-08-27T05:59:55.680Z,4
2017-08-27T06:00:36.139Z,4
2017-08-27T06:01:16.587Z,4
2017-08-27T06:01:57.052Z,4
2017-08-27T06:02:37.511Z,4
2017-08-27T06:03:17.979Z,4
2017-08-27T06:03:58.439Z,4
2017-08-27T06:04:38.889Z,4
2017-08-27T06:05:19.400Z,4
2017-08-27T06:05:59.858Z,8
2017-08-27T06:06:40.311Z,8
2017-08-27T06:07:20.768Z,4
2017-08-27T06:08:01.232Z,4
2017-08-27T06:08:41.683Z,4
2017-08-27T06:09:22.143Z,4
2017-08-27T06:10:02.597Z,4
2017-08-27T06:10:43.055Z,4
2017-08-27T06:11:23.510Z,4
2017-08-27T06:12:03.965Z,4
2017-08-27T06:12:44.423Z,4
2017-08-27T06:13:24.875Z,4
2017-08-27T06:14:05.328Z,4
2017-08-27T06:14:45.778Z,4
2017-08-27T06:15:26.240Z,4
2017-08-27T06:16:06.699Z,4
2017-08-27T06:16:47.158Z,4
2017-08-27T06:17:27.612Z,4
2017-08-27T06:18:08.062Z,4
2017-08-27T06:18:48.521Z,4
2017-08-27T06:19:28.973Z,4
2017-08-27T06:20:09.451Z,4
2017-08-27T06:20:49.905Z,4
2017-08-27T06:21:30.360Z,4
2017-08-27T06:22:10.824Z,4
2017-08-27T06:22:51.282Z,4
2017-08-27T06:23:31.745Z,4
2017-08-27T06:24:12.195Z,4
2017-08-27T06:24:52.646Z,4
2017-08-27T06:25:33.102Z,4
2017-08-27T06:26:13.559Z,4
2017-08-27T06:26:54.016Z,4
2017-08-27T06:27:34.523Z,4
2017-08-27T06:28:14.966Z,4
2017-08-27T06:28:55.422Z,4
2017-08-27T06:29:35.891Z,4
2017-08-27T06:30:16.355Z,4
2017-08-27T06:30:56.815Z,4
2017-08-27T06:31:37.251Z,4
2017-08-27T06:32:17.712Z,4
2017-08-27T06:32:58.176Z,8
2017-08-27T06:33:38.628Z,4
2017-08-27T06:34:19.090Z,4
2017-08-27T06:34:59.578Z,4
2017-08-27T06:35:40.037Z,8
2017-08-27T06:36:20.496Z,4
2017-08-27T06:37:00.952Z,4
2017-08-27T06:37:41.411Z,4
2017-08-27T06:38:21.870Z,4
2017-08-27T06:39:02.320Z,4
2017-08-27T06:39:42.776Z,4
2017-08-27T06:40:23.233Z,4
2017-08-27T06:41:03.689Z,4
2017-08-27T06:41:44.154Z,8
2017-08-27T06:42:24.612Z,8
2017-08-27T06:43:05.068Z,4
2017-08-27T06:43:45.524Z,4
2017-08-27T06:44:25.982Z,4
2017-08-27T06:45:06.446Z,4
2017-08-27T06:45:46.891Z,4
2017-08-27T06:46:27.363Z,8
2017-08-27T06:47:07.825Z,8
2017-08-27T06:47:48.286Z,4
2017-08-27T06:48:28.748Z,8
2017-08-27T06:49:09.195Z,8
2017-08-27T06:49:49.651Z,4
2017-08-27T06:50:30.107Z,8
2017-08-27T06:51:10.559Z,8
2017-08-27T06:58:25.799Z,12
2017-08-27T06:59:06.499Z,12
2017-08-27T06:59:46.972Z,8
2017-08-27T07:00:27.427Z,8
2017-08-27T07:01:07.878Z,8
2017-08-27T07:01:48.326Z,8
2017-08-27T07:02:28.790Z,12
2017-08-27T07:03:09.244Z,12
2017-08-27T07:03:49.704Z,12
2017-08-27T07:09:45.249Z,8
2017-08-27T07:10:25.761Z,8
2017-08-27T07:11:06.211Z,8
2017-08-27T07:11:46.669Z,8
2017-08-27T07:12:27.124Z,4
2017-08-27T07:13:07.580Z,4
2017-08-27T07:13:48.015Z,4
2017-08-27T07:14:28.466Z,4
2017-08-27T07:15:08.914Z,4
2017-08-27T07:15:49.376Z,4
2017-08-27T07:16:29.801Z,4
2017-08-27T07:17:10.244Z,4
2017-08-27T07:17:50.703Z,4
2017-08-27T07:18:31.156Z,4
2017-08-27T07:19:11.596Z,4
2017-08-27T07:19:52.041Z,4
2017-08-27T07:20:32.493Z,4
2017-08-27T07:21:12.965Z,4
2017-08-27T07:21:53.394Z,4
2017-08-27T07:22:33.868Z,4
2017-08-27T07:25:01.841Z,4
2017-08-27T07:25:42.287Z,4
2017-08-27T07:26:22.742Z,4
2017-08-27T07:27:03.193Z,4
2017-08-27T07:27:43.643Z,4
2017-08-27T07:28:24.087Z,4
2017-08-27T07:29:04.552Z,4
2017-08-27T07:29:45.028Z,4
2017-08-27T07:30:25.482Z,4
2017-08-27T07:31:05.939Z,4
2017-08-27T07:31:46.394Z,8
2017-08-27T07:32:26.852Z,8
2017-08-27T07:33:07.321Z,8
2017-08-27T07:33:47.772Z,4
2017-08-27T07:34:28.224Z,8
2017-08-27T07:35:08.704Z,8
2017-08-27T07:35:49.159Z,8
2017-08-27T07:36:29.601Z,8
2017-08-27T07:37:10.069Z,12
2017-08-27T07:37:50.516Z,8
2017-08-27T07:38:30.960Z,8
2017-08-27T07:39:11.417Z,12
2017-08-27T07:39:51.866Z,12
2017-08-27T07:40:32.337Z,12
2017-08-27T07:41:12.763Z,12
2017-08-27T07:41:53.217Z,12
2017-08-27T07:42:33.661Z,16
2017-08-27T07:43:14.144Z,16
2017-08-27T07:43:54.575Z,16
2017-08-27T07:44:35.031Z,16
2017-08-27T07:45:15.486Z,12
2017-08-27T07:45:55.912Z,12
2017-08-27T07:46:36.445Z,12
2017-08-27T07:47:16.905Z,12
2017-08-27T07:47:57.373Z,12
2017-08-27T07:48:37.822Z,12
2017-08-27T07:49:18.277Z,12
2017-08-27T07:49:58.742Z,8
2017-08-27T07:50:39.209Z,12
2017-08-27T07:51:19.682Z,12
2017-08-27T07:52:00.146Z,12
2017-08-27T07:52:40.589Z,12
2017-08-27T07:53:21.056Z,12
2017-08-27T07:54:01.524Z,12
2017-08-27T07:54:41.979Z,12
2017-08-27T07:55:22.480Z,12
2017-08-27T07:56:02.914Z,12
2017-08-27T07:56:43.414Z,12
2017-08-27T07:58:41.111Z,12
2017-08-27T07:59:21.567Z,12
2017-08-27T08:00:02.024Z,12
2017-08-27T08:00:42.470Z,12
2017-08-27T08:01:22.966Z,12
2017-08-27T08:02:03.409Z,12
2017-08-27T08:02:43.870Z,12
2017-08-27T08:03:24.324Z,12
2017-08-27T08:04:04.781Z,16
2017-08-27T08:04:45.229Z,12
2017-08-27T08:05:25.676Z,12
2017-08-27T08:06:06.136Z,12
2017-08-27T08:06:46.592Z,12
2017-08-27T08:07:27.047Z,324
2017-08-27T08:08:07.619Z,788
2017-08-27T08:08:48.069Z,804
2017-08-27T08:09:28.486Z,824
2017-08-27T08:10:08.913Z,856
2017-08-27T08:10:49.324Z,896
2017-08-27T08:11:29.754Z,896
2017-08-27T08:12:10.202Z,924
2017-08-27T08:12:50.612Z,928
2017-08-27T08:13:31.026Z,924
2017-08-27T08:14:11.489Z,984
2017-08-27T08:14:51.867Z,944
2017-08-27T08:15:32.302Z,920
2017-08-27T08:16:12.840Z,924
2017-08-27T08:16:54.337Z,944
2017-08-27T08:17:34.754Z,940
2017-08-27T08:18:15.164Z,948
2017-08-27T08:18:55.571Z,968
2017-08-27T08:19:35.977Z,972
2017-08-27T08:20:16.400Z,1004
2017-08-27T08:20:56.800Z,1032
2017-08-27T08:21:37.242Z,1072
2017-08-27T08:22:17.824Z,1116
2017-08-27T08:22:58.275Z,1116
2017-08-27T08:23:38.697Z,1136
2017-08-27T08:24:19.249Z,1124
2017-08-27T08:24:59.822Z,1084
2017-08-27T08:25:40.233Z,1092
2017-08-27T08:26:20.688Z,1112
2017-08-27T08:27:01.251Z,1104
2017-08-27T08:27:41.849Z,1144
2017-08-27T08:28:22.233Z,1232
2017-08-27T08:29:02.649Z,1224
2017-08-27T08:29:43.057Z,1252
2017-08-27T08:30:23.504Z,1296
2017-08-27T08:31:03.955Z,1292
2017-08-27T08:31:44.398Z,1384
2017-08-27T08:32:24.810Z,1484
2017-08-27T08:33:05.253Z,1896
2017-08-27T08:33:45.644Z,1688
2017-08-27T08:34:26.078Z,2108
2017-08-27T08:35:06.508Z,2316
2017-08-27T08:35:46.876Z,2516
2017-08-27T08:36:27.299Z,2500
2017-08-27T08:37:07.750Z,2620
2017-08-27T08:37:48.208Z,2280
2017-08-27T08:38:28.660Z,2188
2017-08-27T08:39:09.354Z,2104
2017-08-27T08:39:49.952Z,2044
2017-08-27T08:40:30.415Z,2020
2017-08-27T08:41:10.873Z,1712
2017-08-27T08:41:51.343Z,1580
2017-08-27T08:42:31.793Z,1484
2017-08-27T08:43:12.241Z,1484
2017-08-27T08:43:52.678Z,1432
2017-08-27T08:44:33.133Z,1408
2017-08-27T08:45:13.564Z,1492
2017-08-27T08:45:54.016Z,1468
2017-08-27T08:46:34.492Z,1320
2017-08-27T08:48:32.180Z,1348
2017-08-27T08:49:12.631Z,1424
2017-08-27T08:49:53.094Z,1508
2017-08-27T08:50:33.597Z,1496
2017-08-27T08:51:14.036Z,1696
2017-08-27T08:51:54.569Z,2144
2017-08-27T08:52:34.930Z,2548
2017-08-27T08:53:15.332Z,2000
2017-08-27T08:53:55.773Z,2208
2017-08-27T08:54:36.145Z,2384
2017-08-27T08:55:16.568Z,1864
2017-08-27T08:55:57.021Z,1820
2017-08-27T08:56:37.482Z,2300
2017-08-27T08:57:17.932Z,2024
2017-08-27T08:57:58.483Z,1776
2017-08-27T08:58:38.944Z,1972
2017-08-27T08:59:19.475Z,2836
2017-08-27T08:59:59.928Z,2520
2017-08-27T09:00:40.409Z,1996
2017-08-27T09:01:20.862Z,1872
2017-08-27T09:02:01.316Z,2000
2017-08-27T09:02:41.767Z,1988
2017-08-27T09:03:22.222Z,2308
2017-08-27T09:04:02.695Z,2692
2017-08-27T09:04:43.143Z,2396
2017-08-27T09:05:24.019Z,2220
2017-08-27T09:06:04.641Z,2072
2017-08-27T09:06:45.973Z,1932
2017-08-27T09:07:26.450Z,1924
2017-08-27T09:08:06.994Z,2032
2017-08-27T09:08:47.489Z,1792
2017-08-27T09:09:27.904Z,1780
2017-08-27T09:10:08.429Z,1648
2017-08-27T09:10:49.013Z,1616
2017-08-27T09:11:29.544Z,1624
2017-08-27T09:13:27.272Z,1968
2017-08-27T09:14:07.703Z,1784
2017-08-27T09:14:48.149Z,1836
2017-08-27T09:15:28.595Z,2368
2017-08-27T09:16:09.040Z,3904
2017-08-27T09:16:49.399Z,3732
2017-08-27T09:17:29.805Z,3420
2017-08-27T09:18:10.182Z,3908
2017-08-27T09:18:50.613Z,3632
2017-08-27T09:19:31.026Z,3984
2017-08-27T09:20:11.432Z,4044
2017-08-27T09:20:51.888Z,4012
2017-08-27T09:21:32.316Z,3952
2017-08-27T09:22:12.678Z,3572
2017-08-27T09:22:53.079Z,3904
2017-08-27T09:23:33.465Z,4028
2017-08-27T09:24:13.884Z,3912
2017-08-27T09:24:54.327Z,3860
2017-08-27T09:25:34.737Z,3788
2017-08-27T09:26:15.121Z,3812
2017-08-27T09:26:55.541Z,3596
2017-08-27T09:27:35.940Z,3644
2017-08-27T09:28:16.346Z,3728
2017-08-27T09:28:56.783Z,3144
2017-08-27T09:29:37.165Z,2688
2017-08-27T09:30:17.594Z,2652
2017-08-27T09:30:58.026Z,2760
2017-08-27T09:31:38.471Z,3452
2017-08-27T09:32:18.920Z,3104
2017-08-27T09:32:59.398Z,2872
2017-08-27T09:33:39.845Z,2812
2017-08-27T09:34:20.305Z,2828
2017-08-27T09:35:00.756Z,3300
2017-08-27T09:35:41.211Z,2788
2017-08-27T09:36:21.670Z,2960
2017-08-27T09:37:02.115Z,3208
2017-08-27T09:37:42.551Z,3504
2017-08-27T09:38:22.966Z,3848
2017-08-27T09:39:03.424Z,3940
2017-08-27T09:39:43.899Z,3708
2017-08-27T09:40:24.367Z,4180
2017-08-27T09:41:04.818Z,4172
2017-08-27T09:41:45.265Z,4124
2017-08-27T09:42:25.719Z,4268
2017-08-27T09:43:06.176Z,3828
2017-08-27T09:43:46.626Z,3448
2017-08-27T09:44:27.086Z,4192
2017-08-27T09:45:07.498Z,4036
2017-08-27T09:45:47.933Z,4264
2017-08-27T09:46:28.384Z,3996
2017-08-27T09:47:08.841Z,3824
2017-08-27T09:47:49.294Z,3832
2017-08-27T09:48:29.768Z,3816
2017-08-27T09:49:10.229Z,4160
2017-08-27T09:49:50.685Z,4148
2017-08-27T09:50:31.132Z,4168
2017-08-27T09:51:11.589Z,4004
2017-08-27T09:51:52.103Z,4216
2017-08-27T09:54:20.233Z,4004
2017-08-27T09:55:00.682Z,3460
2017-08-27T09:55:41.119Z,3364
2017-08-27T09:56:21.584Z,3348
2017-08-27T09:57:02.046Z,3300
2017-08-27T09:57:42.504Z,4320
2017-08-27T09:58:22.967Z,3876
2017-08-27T09:59:03.424Z,4060
2017-08-27T09:59:43.879Z,4244
2017-08-27T10:00:24.330Z,4196
2017-08-27T10:01:04.778Z,4168
2017-08-27T10:01:45.202Z,3984
2017-08-27T10:02:25.669Z,3680
2017-08-27T10:03:06.123Z,3412
2017-08-27T10:03:46.595Z,3796
2017-08-27T10:04:27.049Z,4344
2017-08-27T10:05:07.554Z,3524
2017-08-27T10:05:48.006Z,3460
2017-08-27T10:06:28.448Z,4392
2017-08-27T10:07:08.897Z,4328